• Join FlightAware (Why Join?)
  • Login
  • US Flag 
12:02AM EST


 

Airport Tracker/Info


-or-


 

Live Flight TrackerFlight Track Log ✈ DAL1981 ✈ 17-May-2013 ✈ KALB - KATL

Flight Track Log - Related Links

Times and Time Zones

All times are in EDT time to prevent confusion due to time zone crossing. See the DAL1981 flight status page for this flight to view local times or setup timezone preferences in your user account.

Time Position Orientation Groundspeed Altitude Reporting Facility
EDT Latitude Longitude Course Direction KTS MPH feet Rate Location/Type
06:11AM 42.7653 -73.8061 180° South 162 186 1,300  Level Boston Center
06:11AM 42.7778 -73.8092 350° North 154 177 1,900 2,520 Climbing Boston Center
06:13AM 42.8456 -73.8872 320° Northwest 217 250 6,400 2,820 Climbing Boston Center
06:14AM 42.4980 -74.1529 200° South  Level Estimated
06:14AM 42.8803 -73.9503 307° West 200 230 9,600  Level Boston Center
06:15AM 42.4141 -74.2692 198° South  Level Estimated
06:15AM 42.8811 -74.0353 271° West 208 239 11,500  Level Boston Center
06:16AM 42.3300 -74.3852 180° South  Level Estimated
06:16AM 42.8569 -74.1281 250° West 243 280 13,700  Level Boston Center
06:17AM 42.7831 -74.1856 210° Southwest 284 327 15,600 1,500 Climbing Boston Center
06:18AM 42.6806 -74.2108 190° South 371 427 16,700 1,200 Climbing Boston Center
06:19AM 42.5625 -74.1653 164° South 414 476 18,000 1,440 Climbing Boston Center
06:20AM 42.4483 -74.1228 165° South 447 514 19,600 1,800 Climbing Boston Center
06:21AM 42.3197 -74.0742 164° South 469 540 21,600 1,860 Climbing Boston Center
06:22AM 42.1892 -74.0372 168° South 480 552 23,400 2,400 Climbing Boston Center
06:23AM 42.0661 -74.0453 183° South 464 534 26,400 2,340 Climbing Boston Center
06:24AM 41.9311 -74.0111 169° South 459 528 28,100 1,500 Climbing Boston Center
06:25AM 41.8200 -73.9025 144° Southeast 453 521 29,400 1,020 Climbing Boston Center
06:27AM 41.5469 -73.8231 168° South 422 486 31,600 960 Climbing New York Center
06:28AM 41.4431 -73.8983 209° Southwest 410 472 32,800 960 Climbing New York Center
06:29AM 41.3392 -73.9681 207° Southwest 415 478 33,600 600 Climbing New York Center
06:30AM 41.2331 -74.0403 207° Southwest 420 483 34,000 180 Climbing New York Center
06:31AM 41.1286 -74.1233 211° Southwest 439 505 34,000 -60 Level New York Center
06:32AM 41.0586 -74.2383 231° Southwest 419 482 33,900  Descending New York Center
06:33AM 40.9864 -74.3528 230° Southwest 414 476 34,000  Climbing New York Center
06:34AM 40.9142 -74.4669 230° Southwest 414 476 34,000  Level New York Center
06:35AM 40.8439 -74.5839 232° Southwest 414 476 34,000 -60 Level New York Center
06:36AM 40.7733 -74.6978 231° Southwest 414 476 33,900 -60 Descending New York Center
06:37AM 40.7008 -74.8086 229° Southwest 414 476 33,900  Level New York Center
06:38AM 40.6261 -74.9244 230° Southwest 414 476 34,000  Climbing New York Center
06:39AM 40.5511 -75.0372 229° Southwest 414 476 34,000  Level New York Center
06:40AM 40.4800 -75.1558 232° Southwest 414 476 34,000  Level New York Center
06:41AM 40.4069 -75.2711 230° Southwest 419 482 34,000 -60 Level New York Center
06:42AM 40.3358 -75.3861 231° Southwest 419 482 33,900  Descending New York Center
06:43AM 40.2603 -75.5064 231° Southwest 419 482 34,000  Climbing New York Center
06:44AM 40.1867 -75.6264 231° Southwest 419 482 34,000 -60 Level New York Center
06:45AM 40.1197 -75.7328 231° Southwest 431 496 33,900 -60 Descending New York Center
06:46AM 40.0458 -75.8525 231° Southwest 431 496 33,900  Level New York Center
06:47AM 39.9717 -75.9717 231° Southwest 431 496 34,000  Climbing New York Center
06:48AM 39.8997 -76.0908 232° Southwest 431 496 34,000  Level New York Center
06:49AM 39.8103 -76.2217 228° Southwest 436 502 34,000  Level New York Center
06:50AM 39.7336 -76.3456 231° Southwest 436 502 34,000  Level New York Center
06:51AM 39.6592 -76.4636 231° Southwest 436 502 34,000  Level New York Center
06:52AM 39.6161 -76.5317 231° Southwest 435 501 34,000  Level Washington Center
06:53AM 39.5403 -76.6492 230° Southwest 415 478 34,000  Level Washington Center
06:54AM 39.4619 -76.7689 230° Southwest 426 490 34,000  Level Washington Center
06:55AM 39.3858 -76.8886 231° Southwest 437 503 34,000  Level Washington Center
06:56AM 39.3094 -77.0053 230° Southwest 437 503 34,000  Level Washington Center
06:57AM 39.2308 -77.1269 230° Southwest 437 503 34,000  Level Washington Center
06:58AM 39.1522 -77.2431 229° Southwest 443 510 34,000  Level Washington Center
06:59AM 39.0714 -77.3614 229° Southwest 443 510 34,000  Level Washington Center
07:00AM 38.9925 -77.4797 229° Southwest 443 510 34,000  Level Washington Center
07:01AM 38.9153 -77.6033 231° Southwest 448 516 34,000  Level Washington Center
07:02AM 38.8447 -77.7106 230° Southwest 448 516 34,000  Level Washington Center
07:03AM 38.7611 -77.8358 229° Southwest 448 516 34,000  Level Washington Center
07:04AM 38.6839 -77.9558 231° Southwest 448 516 34,000  Level Washington Center
07:05AM 38.6042 -78.0756 230° Southwest 448 516 34,000  Level Washington Center
07:06AM 38.5244 -78.1950 230° Southwest 448 516 34,000  Level Washington Center
07:07AM 38.4447 -78.3142 230° Southwest 448 516 34,000  Level Washington Center
07:08AM 38.3650 -78.4331 229° Southwest 448 516 34,000  Level Washington Center
07:09AM 38.2847 -78.5517 229° Southwest 448 516 34,000  Level Washington Center
07:10AM 38.1981 -78.6831 230° Southwest 443 510 34,000  Level Washington Center
07:11AM 38.1200 -78.7986 229° Southwest 443 510 34,000  Level Washington Center
07:12AM 38.0461 -78.9036 228° Southwest 443 510 34,000  Level Washington Center
07:13AM 37.9658 -79.0186 228° Southwest 443 510 34,000  Level Washington Center
07:14AM 37.8831 -79.1358 228° Southwest 443 510 34,000  Level Washington Center
07:15AM 37.7919 -79.2603 227° Southwest 448 516 34,000  Level Washington Center
07:16AM 37.7069 -79.3744 227° Southwest 448 516 34,000  Level Washington Center
07:17AM 37.6328 -79.4781 228° Southwest 448 516 34,000  Level Washington Center
07:18AM 37.5453 -79.5994 228° Southwest 448 516 34,000  Level Washington Center
07:19AM 37.4600 -79.7128 227° Southwest 448 516 34,000  Level Washington Center
07:20AM 37.3744 -79.8308 228° Southwest 456 525 34,000  Level Washington Center
07:21AM 37.2911 -79.9464 228° Southwest 456 525 34,000  Level Washington Center
07:23AM 37.1575 -80.1272 227° Southwest 447 514 34,000  Level Atlanta Center
07:24AM 37.0653 -80.2489 226° Southwest 447 514 34,000  Level Atlanta Center
07:25AM 36.9833 -80.3619 228° Southwest 441 507 34,000  Level Atlanta Center
07:26AM 36.8969 -80.4750 226° Southwest 441 507 34,000  Level Atlanta Center
07:27AM 36.8147 -80.5878 228° Southwest 441 507 34,000  Level Atlanta Center
07:28AM 36.7403 -80.6867 227° Southwest 441 507 34,000  Level Atlanta Center
07:29AM 36.6558 -80.7964 226° Southwest 434 499 34,000  Level Atlanta Center
07:30AM 36.5686 -80.8956 222° Southwest 434 499 34,000  Level Atlanta Center
07:31AM 36.4861 -81.0203 231° Southwest 440 506 34,000  Level Atlanta Center
07:32AM 36.4014 -81.1317 227° Southwest 440 506 34,000  Level Atlanta Center
07:33AM 36.3206 -81.2403 227° Southwest 440 506 34,000  Level Atlanta Center
07:34AM 36.2353 -81.3514 226° Southwest 435 501 34,000  Level Atlanta Center
07:35AM 36.1542 -81.4594 227° Southwest 435 501 34,000  Level Atlanta Center
07:36AM 36.0669 -81.5703 226° Southwest 435 501 34,000  Level Atlanta Center
07:37AM 35.9814 -81.6806 226° Southwest 440 506 34,000  Level Atlanta Center
07:38AM 35.8981 -81.7906 227° Southwest 441 507 34,000  Level Atlanta Center
07:39AM 35.8061 -81.9083 226° Southwest 433 498 34,000  Level Atlanta Center
07:40AM 35.7203 -82.0156 225° Southwest 433 498 34,000  Level Atlanta Center
07:41AM 35.6367 -82.1222 226° Southwest 438 504 34,000  Level Atlanta Center
07:42AM 35.5464 -82.2264 223° Southwest 433 498 34,000  Level Atlanta Center
07:43AM 35.4600 -82.3253 223° Southwest 440 506 34,000  Level Atlanta Center
07:44AM 35.3675 -82.4267 222° Southwest 446 513 34,000 -780 Level Atlanta Center
07:45AM 35.2814 -82.5300 224° Southwest 446 513 32,500 -1,020 Descending Atlanta Center
07:46AM 35.1989 -82.6181 221° Southwest 440 506 32,000 -480 Descending Atlanta Center
07:47AM 35.1083 -82.7211 223° Southwest 435 501 31,600 -600 Descending Atlanta Center
07:48AM 35.0175 -82.8189 221° Southwest 441 507 30,900 -1,260 Descending Atlanta Center
07:49AM 34.9286 -82.9189 223° Southwest 436 502 29,100 -1,800 Descending Atlanta Center
07:50AM 34.8397 -83.0139 221° Southwest 431 496 27,300 -1,980 Descending Atlanta Center
07:51AM 34.7611 -83.1033 223° Southwest 408 470 25,200 -1,680 Descending Atlanta Center
07:52AM 34.6825 -83.1925 223° Southwest 392 451 24,000 -900 Descending Atlanta Center
07:53AM 34.6017 -83.2767 221° Southwest 397 457 23,500 -1,200 Descending Atlanta Center
07:54AM 34.5147 -83.3783 224° Southwest 397 457 21,700 -2,100 Descending Atlanta Center
07:55AM 34.4336 -83.4697 223° Southwest 397 457 19,400 -2,340 Descending Atlanta Center
07:56AM 34.3547 -83.5531 221° Southwest 392 451 17,100 -2,400 Descending Atlanta Center
07:57AM 34.2800 -83.6367 223° Southwest 382 440 14,700 -2,400 Descending Atlanta Center
07:58AM 34.2050 -83.7147 221° Southwest 371 427 12,400 -1,440 Descending Atlanta Center
07:59AM 34.1342 -83.7953 223° Southwest 365 420 11,900 -180 Descending Atlanta Center
08:00AM 34.0717 -83.8633 222° Southwest 330 380 12,100 -660 Climbing Atlanta Center
08:01AM 34.0114 -83.9261 221° Southwest 293 337 10,600 -1,440 Descending Atlanta Center
08:02AM 33.9486 -83.9536 200° South 280 322 9,300 -840 Descending Atlanta Center
08:03AM 33.8714 -83.9536 180° South 265 305 9,000 -480 Descending Atlanta Center
08:04AM 33.7942 -83.9589 183° South 277 319 8,400 -900 Descending Atlanta Center
08:05AM 33.7169 -83.9639 183° South 277 319 7,300 -1,200 Descending Atlanta Center
08:06AM 33.6586 -84.0164 217° Southwest 255 293 6,000 -660 Descending Atlanta Center
08:07AM 33.6294 -84.0986 247° West 250 288 6,000 -480 Level Atlanta Center
08:07AM 33.6333 -84.1667 274° West 258 297 5,200 -1,380 Descending Atlanta TRACON
08:08AM 33.6333 -84.2500 270° West 252 290 3,700 -1,500 Descending Atlanta TRACON